sensor_id;sensor_type;location;lat;lon;timestamp;pressure;altitude;pressure_sealevel;temperature;humidity
47913;BME280;33676;51.006;17.180;2023-06-05T00:01:28;100716.67;;;12.62;57.18
47913;BME280;33676;51.006;17.180;2023-06-05T00:03:56;100719.26;;;12.58;57.07
47913;BME280;33676;51.006;17.180;2023-06-05T00:06:25;100713.66;;;12.55;57.30
47913;BME280;33676;51.006;17.180;2023-06-05T00:08:54;100713.21;;;12.52;57.29
47913;BME280;33676;51.006;17.180;2023-06-05T00:11:22;100713.72;;;12.51;57.38
47913;BME280;33676;51.006;17.180;2023-06-05T00:13:52;100713.02;;;12.46;57.43
47913;BME280;33676;51.006;17.180;2023-06-05T00:16:20;100712.55;;;12.43;57.48
47913;BME280;33676;51.006;17.180;2023-06-05T00:18:49;100709.95;;;12.39;57.68
47913;BME280;33676;51.006;17.180;2023-06-05T00:21:18;100703.36;;;12.33;57.71
47913;BME280;33676;51.006;17.180;2023-06-05T00:23:48;100708.33;;;12.30;57.88
47913;BME280;33676;51.006;17.180;2023-06-05T00:26:16;100710.62;;;12.28;57.79
47913;BME280;33676;51.006;17.180;2023-06-05T00:28:46;100711.91;;;12.25;57.91
47913;BME280;33676;51.006;17.180;2023-06-05T00:31:14;100710.59;;;12.21;58.09
47913;BME280;33676;51.006;17.180;2023-06-05T00:33:43;100710.07;;;12.17;58.15
47913;BME280;33676;51.006;17.180;2023-06-05T00:36:11;100710.48;;;12.14;58.28
47913;BME280;33676;51.006;17.180;2023-06-05T00:38:40;100710.29;;;12.07;58.53
47913;BME280;33676;51.006;17.180;2023-06-05T00:41:08;100709.78;;;12.03;58.55
47913;BME280;33676;51.006;17.180;2023-06-05T00:43:37;100713.30;;;11.98;58.54
47913;BME280;33676;51.006;17.180;2023-06-05T00:46:06;100712.20;;;11.94;58.57
47913;BME280;33676;51.006;17.180;2023-06-05T00:48:35;100707.67;;;11.89;58.91
47913;BME280;33676;51.006;17.180;2023-06-05T00:51:04;100704.24;;;11.84;59.02
47913;BME280;33676;51.006;17.180;2023-06-05T00:53:34;100702.12;;;11.77;59.17
47913;BME280;33676;51.006;17.180;2023-06-05T00:56:04;100700.05;;;11.72;59.22
47913;BME280;33676;51.006;17.180;2023-06-05T00:58:33;100699.92;;;11.69;59.40
47913;BME280;33676;51.006;17.180;2023-06-05T01:01:02;100698.55;;;11.66;59.55
47913;BME280;33676;51.006;17.180;2023-06-05T01:03:33;100702.04;;;11.64;59.66
47913;BME280;33676;51.006;17.180;2023-06-05T01:06:03;100696.96;;;11.61;59.77
47913;BME280;33676;51.006;17.180;2023-06-05T01:08:36;100697.53;;;11.59;59.90
47913;BME280;33676;51.006;17.180;2023-06-05T01:13:55;100692.39;;;11.48;60.01
47913;BME280;33676;51.006;17.180;2023-06-05T01:16:27;100692.02;;;11.41;60.17
47913;BME280;33676;51.006;17.180;2023-06-05T01:19:03;100694.05;;;11.36;60.28
47913;BME280;33676;51.006;17.180;2023-06-05T01:21:32;100693.89;;;11.31;60.35
47913;BME280;33676;51.006;17.180;2023-06-05T01:24:00;100694.58;;;11.26;60.29
47913;BME280;33676;51.006;17.180;2023-06-05T01:26:53;100694.33;;;11.22;60.26
47913;BME280;33676;51.006;17.180;2023-06-05T01:32:25;100692.16;;;11.09;60.46
47913;BME280;33676;51.006;17.180;2023-06-05T01:34:58;100693.16;;;11.03;60.85
47913;BME280;33676;51.006;17.180;2023-06-05T01:37:28;100689.59;;;10.96;60.94
47913;BME280;33676;51.006;17.180;2023-06-05T01:39:58;100691.42;;;10.93;60.99
47913;BME280;33676;51.006;17.180;2023-06-05T01:42:27;100696.27;;;10.89;61.01
47913;BME280;33676;51.006;17.180;2023-06-05T01:44:56;100699.34;;;10.85;61.18
47913;BME280;33676;51.006;17.180;2023-06-05T01:47:25;100699.13;;;10.81;61.34
47913;BME280;33676;51.006;17.180;2023-06-05T01:49:53;100697.52;;;10.77;61.45
47913;BME280;33676;51.006;17.180;2023-06-05T01:52:23;100697.27;;;10.73;61.59
47913;BME280;33676;51.006;17.180;2023-06-05T01:54:51;100696.42;;;10.70;61.62
47913;BME280;33676;51.006;17.180;2023-06-05T01:57:21;100695.98;;;10.67;61.83
47913;BME280;33676;51.006;17.180;2023-06-05T01:59:49;100693.72;;;10.64;61.94
47913;BME280;33676;51.006;17.180;2023-06-05T02:02:18;100689.48;;;10.62;61.94
47913;BME280;33676;51.006;17.180;2023-06-05T02:04:48;100692.89;;;10.60;61.98
47913;BME280;33676;51.006;17.180;2023-06-05T02:07:16;100686.27;;;10.58;62.33
47913;BME280;33676;51.006;17.180;2023-06-05T02:09:45;100691.80;;;10.56;62.34
47913;BME280;33676;51.006;17.180;2023-06-05T02:12:14;100695.48;;;10.54;62.36
47913;BME280;33676;51.006;17.180;2023-06-05T02:14:43;100690.14;;;10.50;62.41
47913;BME280;33676;51.006;17.180;2023-06-05T02:17:13;100693.02;;;10.46;62.40
47913;BME280;33676;51.006;17.180;2023-06-05T02:19:41;100685.65;;;10.42;62.53
47913;BME280;33676;51.006;17.180;2023-06-05T02:22:10;100682.02;;;10.37;62.45
47913;BME280;33676;51.006;17.180;2023-06-05T02:24:38;100682.29;;;10.31;62.65
47913;BME280;33676;51.006;17.180;2023-06-05T02:27:07;100683.70;;;10.26;62.56
47913;BME280;33676;51.006;17.180;2023-06-05T02:29:36;100682.81;;;10.21;62.72
47913;BME280;33676;51.006;17.180;2023-06-05T02:32:05;100681.23;;;10.15;62.97
47913;BME280;33676;51.006;17.180;2023-06-05T02:34:34;100681.16;;;10.11;63.09
47913;BME280;33676;51.006;17.180;2023-06-05T02:37:05;100678.17;;;10.09;63.09
47913;BME280;33676;51.006;17.180;2023-06-05T02:39:34;100677.56;;;10.08;63.27
47913;BME280;33676;51.006;17.180;2023-06-05T02:42:03;100676.23;;;10.07;63.34
47913;BME280;33676;51.006;17.180;2023-06-05T02:44:31;100674.92;;;10.06;63.61
47913;BME280;33676;51.006;17.180;2023-06-05T02:47:01;100678.11;;;10.05;63.55
47913;BME280;33676;51.006;17.180;2023-06-05T02:49:30;100680.27;;;10.04;63.83
47913;BME280;33676;51.006;17.180;2023-06-05T02:52:00;100677.54;;;10.03;63.94
47913;BME280;33676;51.006;17.180;2023-06-05T02:54:28;100680.58;;;10.02;64.05
47913;BME280;33676;51.006;17.180;2023-06-05T02:56:57;100682.59;;;10.01;64.14
47913;BME280;33676;51.006;17.180;2023-06-05T02:59:28;100683.99;;;9.98;64.16
47913;BME280;33676;51.006;17.180;2023-06-05T03:02:00;100685.77;;;9.95;64.23
47913;BME280;33676;51.006;17.180;2023-06-05T03:04:28;100685.38;;;9.91;64.37
47913;BME280;33676;51.006;17.180;2023-06-05T03:06:57;100688.70;;;9.88;64.43
47913;BME280;33676;51.006;17.180;2023-06-05T03:09:25;100689.88;;;9.87;64.54
47913;BME280;33676;51.006;17.180;2023-06-05T03:11:54;100689.60;;;9.86;64.72
47913;BME280;33676;51.006;17.180;2023-06-05T03:14:22;100686.79;;;9.86;64.81
47913;BME280;33676;51.006;17.180;2023-06-05T03:16:51;100687.63;;;9.86;64.87
47913;BME280;33676;51.006;17.180;2023-06-05T03:19:21;100689.73;;;9.86;64.87
47913;BME280;33676;51.006;17.180;2023-06-05T03:21:49;100692.57;;;9.88;64.98
47913;BME280;33676;51.006;17.180;2023-06-05T03:24:19;100695.23;;;9.90;65.10
47913;BME280;33676;51.006;17.180;2023-06-05T03:26:48;100698.48;;;9.93;65.33
47913;BME280;33676;51.006;17.180;2023-06-05T03:29:17;100699.52;;;9.96;65.44
47913;BME280;33676;51.006;17.180;2023-06-05T03:31:45;100699.15;;;9.99;65.61
47913;BME280;33676;51.006;17.180;2023-06-05T03:34:14;100698.31;;;10.01;65.54
47913;BME280;33676;51.006;17.180;2023-06-05T03:36:42;100700.63;;;10.03;65.54
47913;BME280;33676;51.006;17.180;2023-06-05T03:39:11;100709.13;;;10.06;65.77
47913;BME280;33676;51.006;17.180;2023-06-05T03:41:40;100709.94;;;10.07;65.89
47913;BME280;33676;51.006;17.180;2023-06-05T03:44:09;100707.52;;;10.09;66.08
47913;BME280;33676;51.006;17.180;2023-06-05T03:46:37;100708.91;;;10.12;66.13
47913;BME280;33676;51.006;17.180;2023-06-05T03:49:06;100708.48;;;10.13;65.93
47913;BME280;33676;51.006;17.180;2023-06-05T03:51:37;100711.64;;;10.15;66.03
47913;BME280;33676;51.006;17.180;2023-06-05T03:54:08;100712.13;;;10.18;66.10
47913;BME280;33676;51.006;17.180;2023-06-05T03:56:37;100709.61;;;10.22;66.31
47913;BME280;33676;51.006;17.180;2023-06-05T03:59:11;100711.16;;;10.28;66.29
47913;BME280;33676;51.006;17.180;2023-06-05T04:01:47;100713.48;;;10.32;66.49
47913;BME280;33676;51.006;17.180;2023-06-05T04:04:16;100713.14;;;10.37;66.28
47913;BME280;33676;51.006;17.180;2023-06-05T04:06:45;100713.20;;;10.41;66.33
47913;BME280;33676;51.006;17.180;2023-06-05T04:09:13;100712.84;;;10.46;66.23
47913;BME280;33676;51.006;17.180;2023-06-05T04:11:43;100712.23;;;10.52;66.31
47913;BME280;33676;51.006;17.180;2023-06-05T04:14:12;100713.43;;;10.57;66.47
47913;BME280;33676;51.006;17.180;2023-06-05T04:16:41;100714.99;;;10.65;66.53
47913;BME280;33676;51.006;17.180;2023-06-05T04:19:13;100715.23;;;10.71;66.58
47913;BME280;33676;51.006;17.180;2023-06-05T04:21:41;100718.67;;;10.79;66.66
47913;BME280;33676;51.006;17.180;2023-06-05T04:24:10;100716.39;;;10.87;66.71
47913;BME280;33676;51.006;17.180;2023-06-05T04:26:40;100716.70;;;10.94;66.64
47913;BME280;33676;51.006;17.180;2023-06-05T04:29:12;100720.45;;;11.03;66.80
47913;BME280;33676;51.006;17.180;2023-06-05T04:31:47;100717.16;;;11.12;66.87
47913;BME280;33676;51.006;17.180;2023-06-05T04:34:16;100719.20;;;11.19;66.94
47913;BME280;33676;51.006;17.180;2023-06-05T04:36:46;100718.55;;;11.28;67.02
47913;BME280;33676;51.006;17.180;2023-06-05T04:39:19;100720.10;;;11.38;67.09
47913;BME280;33676;51.006;17.180;2023-06-05T04:41:48;100719.32;;;11.48;67.21
47913;BME280;33676;51.006;17.180;2023-06-05T04:44:34;100714.58;;;11.60;67.23
47913;BME280;33676;51.006;17.180;2023-06-05T04:47:03;100714.95;;;11.69;67.21
47913;BME280;33676;51.006;17.180;2023-06-05T04:49:34;100717.36;;;11.79;67.40
47913;BME280;33676;51.006;17.180;2023-06-05T04:52:03;100710.42;;;11.90;67.44
47913;BME280;33676;51.006;17.180;2023-06-05T04:54:32;100711.01;;;12.00;67.38
47913;BME280;33676;51.006;17.180;2023-06-05T04:57:00;100709.39;;;12.12;67.36
47913;BME280;33676;51.006;17.180;2023-06-05T04:59:29;100704.96;;;12.24;67.48
47913;BME280;33676;51.006;17.180;2023-06-05T05:02:01;100703.59;;;12.37;67.54
47913;BME280;33676;51.006;17.180;2023-06-05T05:04:29;100706.34;;;12.48;67.41
47913;BME280;33676;51.006;17.180;2023-06-05T05:07:00;100702.17;;;12.61;67.39
47913;BME280;33676;51.006;17.180;2023-06-05T05:09:32;100700.55;;;12.73;67.41
47913;BME280;33676;51.006;17.180;2023-06-05T05:12:01;100703.23;;;12.85;67.36
47913;BME280;33676;51.006;17.180;2023-06-05T05:14:29;100698.20;;;13.00;67.49
47913;BME280;33676;51.006;17.180;2023-06-05T05:16:58;100702.48;;;13.13;67.34
47913;BME280;33676;51.006;17.180;2023-06-05T05:19:27;100699.60;;;13.27;67.39
47913;BME280;33676;51.006;17.180;2023-06-05T05:21:57;100704.61;;;13.43;67.50
47913;BME280;33676;51.006;17.180;2023-06-05T05:24:25;100704.89;;;13.59;67.44
47913;BME280;33676;51.006;17.180;2023-06-05T05:26:54;100707.71;;;13.73;67.37
47913;BME280;33676;51.006;17.180;2023-06-05T05:29:23;100708.70;;;13.86;67.22
47913;BME280;33676;51.006;17.180;2023-06-05T05:31:54;100705.54;;;14.01;67.05
47913;BME280;33676;51.006;17.180;2023-06-05T05:34:23;100708.67;;;14.15;67.11
47913;BME280;33676;51.006;17.180;2023-06-05T05:36:52;100708.10;;;14.30;66.99
47913;BME280;33676;51.006;17.180;2023-06-05T05:39:20;100705.89;;;14.45;66.93
47913;BME280;33676;51.006;17.180;2023-06-05T05:41:50;100710.81;;;14.61;66.83
47913;BME280;33676;51.006;17.180;2023-06-05T05:44:19;100711.08;;;14.76;66.83
47913;BME280;33676;51.006;17.180;2023-06-05T05:46:49;100713.00;;;14.90;66.71
47913;BME280;33676;51.006;17.180;2023-06-05T05:49:20;100708.84;;;15.05;66.64
47913;BME280;33676;51.006;17.180;2023-06-05T05:51:50;100710.06;;;15.19;66.41
47913;BME280;33676;51.006;17.180;2023-06-05T05:54:19;100710.71;;;15.31;66.30
47913;BME280;33676;51.006;17.180;2023-06-05T05:56:47;100713.15;;;15.44;66.24
47913;BME280;33676;51.006;17.180;2023-06-05T05:59:16;100717.64;;;15.57;66.25
47913;BME280;33676;51.006;17.180;2023-06-05T06:01:44;100716.37;;;15.71;66.21
47913;BME280;33676;51.006;17.180;2023-06-05T06:04:16;100713.73;;;15.84;66.00
47913;BME280;33676;51.006;17.180;2023-06-05T06:06:45;100713.28;;;15.97;65.79
47913;BME280;33676;51.006;17.180;2023-06-05T06:09:20;100712.23;;;16.09;65.50
47913;BME280;33676;51.006;17.180;2023-06-05T06:11:49;100712.55;;;16.21;65.45
47913;BME280;33676;51.006;17.180;2023-06-05T06:14:18;100716.52;;;16.33;65.15
47913;BME280;33676;51.006;17.180;2023-06-05T06:16:46;100717.75;;;16.44;65.05
47913;BME280;33676;51.006;17.180;2023-06-05T06:19:15;100721.14;;;16.55;64.75
47913;BME280;33676;51.006;17.180;2023-06-05T06:21:44;100714.69;;;16.67;64.68
47913;BME280;33676;51.006;17.180;2023-06-05T06:24:12;100717.75;;;16.79;64.53
47913;BME280;33676;51.006;17.180;2023-06-05T06:26:44;100718.02;;;16.91;64.39
47913;BME280;33676;51.006;17.180;2023-06-05T06:29:19;100720.27;;;17.04;64.46
47913;BME280;33676;51.006;17.180;2023-06-05T06:31:49;100717.44;;;17.18;64.39
47913;BME280;33676;51.006;17.180;2023-06-05T06:34:18;100723.23;;;17.31;64.18
47913;BME280;33676;51.006;17.180;2023-06-05T06:36:47;100721.27;;;17.41;63.83
47913;BME280;33676;51.006;17.180;2023-06-05T06:39:15;100718.64;;;17.52;63.79
47913;BME280;33676;51.006;17.180;2023-06-05T06:41:44;100720.35;;;17.63;63.63
47913;BME280;33676;51.006;17.180;2023-06-05T06:44:12;100721.25;;;17.75;63.49
47913;BME280;33676;51.006;17.180;2023-06-05T06:46:41;100719.48;;;17.87;63.43
47913;BME280;33676;51.006;17.180;2023-06-05T06:49:10;100719.77;;;18.00;63.34
47913;BME280;33676;51.006;17.180;2023-06-05T06:51:40;100723.61;;;18.13;63.25
47913;BME280;33676;51.006;17.180;2023-06-05T06:54:09;100721.13;;;18.25;63.00
47913;BME280;33676;51.006;17.180;2023-06-05T06:56:37;100722.67;;;18.37;63.00
47913;BME280;33676;51.006;17.180;2023-06-05T06:59:13;100721.41;;;18.51;63.14
47913;BME280;33676;51.006;17.180;2023-06-05T07:01:46;100724.09;;;18.66;63.06
47913;BME280;33676;51.006;17.180;2023-06-05T07:04:16;100719.08;;;18.80;63.02
47913;BME280;33676;51.006;17.180;2023-06-05T07:06:48;100724.36;;;18.93;62.85
47913;BME280;33676;51.006;17.180;2023-06-05T07:09:17;100725.90;;;19.12;62.98
47913;BME280;33676;51.006;17.180;2023-06-05T07:11:46;100727.18;;;19.41;62.90
47913;BME280;33676;51.006;17.180;2023-06-05T07:14:15;100720.92;;;19.68;62.62
47913;BME280;33676;51.006;17.180;2023-06-05T07:16:43;100725.51;;;19.89;62.23
47913;BME280;33676;51.006;17.180;2023-06-05T07:19:13;100723.76;;;20.03;61.72
47913;BME280;33676;51.006;17.180;2023-06-05T07:21:43;100725.54;;;20.12;61.34
47913;BME280;33676;51.006;17.180;2023-06-05T07:24:11;100722.75;;;20.22;60.97
47913;BME280;33676;51.006;17.180;2023-06-05T07:26:42;100722.50;;;20.30;60.69
47913;BME280;33676;51.006;17.180;2023-06-05T07:29:11;100723.69;;;20.42;60.60
47913;BME280;33676;51.006;17.180;2023-06-05T07:31:40;100722.45;;;20.53;60.44
47913;BME280;33676;51.006;17.180;2023-06-05T07:34:08;100723.44;;;20.63;59.92
47913;BME280;33676;51.006;17.180;2023-06-05T07:36:37;100725.17;;;20.71;59.80
47913;BME280;33676;51.006;17.180;2023-06-05T07:39:06;100723.34;;;20.80;59.84
47913;BME280;33676;51.006;17.180;2023-06-05T07:41:35;100724.10;;;20.92;59.57
47913;BME280;33676;51.006;17.180;2023-06-05T07:44:03;100723.48;;;21.01;59.27
47913;BME280;33676;51.006;17.180;2023-06-05T07:46:32;100725.88;;;21.09;59.18
47913;BME280;33676;51.006;17.180;2023-06-05T07:49:00;100726.39;;;21.19;58.96
47913;BME280;33676;51.006;17.180;2023-06-05T07:51:29;100726.89;;;21.30;58.49
47913;BME280;33676;51.006;17.180;2023-06-05T07:53:58;100723.38;;;21.51;58.25
47913;BME280;33676;51.006;17.180;2023-06-05T07:56:26;100723.65;;;21.71;58.51
47913;BME280;33676;51.006;17.180;2023-06-05T07:58:55;100720.76;;;21.97;58.61
47913;BME280;33676;51.006;17.180;2023-06-05T08:01:23;100716.98;;;22.18;58.06
47913;BME280;33676;51.006;17.180;2023-06-05T08:03:52;100710.00;;;22.24;57.49
47913;BME280;33676;51.006;17.180;2023-06-05T08:06:24;100708.95;;;22.31;57.36
47913;BME280;33676;51.006;17.180;2023-06-05T08:08:52;100711.96;;;22.41;57.17
47913;BME280;33676;51.006;17.180;2023-06-05T08:11:21;100709.20;;;22.53;57.07
47913;BME280;33676;51.006;17.180;2023-06-05T08:13:50;100707.75;;;22.62;56.84
47913;BME280;33676;51.006;17.180;2023-06-05T08:16:18;100708.00;;;22.71;56.55
47913;BME280;33676;51.006;17.180;2023-06-05T08:18:47;100706.77;;;22.80;56.28
47913;BME280;33676;51.006;17.180;2023-06-05T08:21:15;100707.89;;;22.89;56.01
47913;BME280;33676;51.006;17.180;2023-06-05T08:23:45;100707.52;;;22.98;55.84
47913;BME280;33676;51.006;17.180;2023-06-05T08:26:13;100711.61;;;23.07;55.53
47913;BME280;33676;51.006;17.180;2023-06-05T08:28:42;100710.15;;;23.16;55.29
47913;BME280;33676;51.006;17.180;2023-06-05T08:31:10;100705.38;;;23.24;55.03
47913;BME280;33676;51.006;17.180;2023-06-05T08:33:42;100705.84;;;23.34;54.60
47913;BME280;33676;51.006;17.180;2023-06-05T08:36:10;100703.30;;;23.46;54.08
47913;BME280;33676;51.006;17.180;2023-06-05T08:38:39;100704.68;;;23.66;54.27
47913;BME280;33676;51.006;17.180;2023-06-05T08:41:09;100701.16;;;23.87;54.13
47913;BME280;33676;51.006;17.180;2023-06-05T08:43:41;100701.13;;;24.08;53.97
47913;BME280;33676;51.006;17.180;2023-06-05T08:46:11;100699.13;;;24.28;53.78
47913;BME280;33676;51.006;17.180;2023-06-05T08:48:47;100697.12;;;24.41;53.43
47913;BME280;33676;51.006;17.180;2023-06-05T08:51:18;100698.59;;;24.52;53.30
47913;BME280;33676;51.006;17.180;2023-06-05T08:54:03;100696.98;;;24.60;52.95
47913;BME280;33676;51.006;17.180;2023-06-05T08:56:33;100701.48;;;24.69;52.30
47913;BME280;33676;51.006;17.180;2023-06-05T08:59:07;100696.77;;;24.80;52.17
47913;BME280;33676;51.006;17.180;2023-06-05T09:01:35;100696.84;;;24.91;51.83
47913;BME280;33676;51.006;17.180;2023-06-05T09:04:06;100694.84;;;24.95;51.45
47913;BME280;33676;51.006;17.180;2023-06-05T09:06:34;100689.35;;;25.00;51.21
47913;BME280;33676;51.006;17.180;2023-06-05T09:09:03;100689.21;;;25.08;51.28
47913;BME280;33676;51.006;17.180;2023-06-05T09:11:31;100689.19;;;25.23;51.07
47913;BME280;33676;51.006;17.180;2023-06-05T09:14:01;100684.20;;;25.37;50.93
47913;BME280;33676;51.006;17.180;2023-06-05T09:16:37;100685.27;;;25.51;50.49
47913;BME280;33676;51.006;17.180;2023-06-05T09:19:07;100678.86;;;25.61;49.02
47913;BME280;33676;51.006;17.180;2023-06-05T09:21:35;100678.38;;;25.74;49.23
47913;BME280;33676;51.006;17.180;2023-06-05T09:27:05;100680.63;;;26.15;48.62
47913;BME280;33676;51.006;17.180;2023-06-05T09:29:36;100676.59;;;26.32;48.25
47913;BME280;33676;51.006;17.180;2023-06-05T09:34:39;100670.95;;;26.48;47.35
47913;BME280;33676;51.006;17.180;2023-06-05T09:37:10;100667.60;;;26.59;47.46
47913;BME280;33676;51.006;17.180;2023-06-05T09:39:41;100664.33;;;26.71;47.14
47913;BME280;33676;51.006;17.180;2023-06-05T09:42:11;100664.67;;;26.84;47.24
47913;BME280;33676;51.006;17.180;2023-06-05T09:44:40;100667.35;;;27.00;47.13
47913;BME280;33676;51.006;17.180;2023-06-05T09:47:10;100663.91;;;27.17;46.93
47913;BME280;33676;51.006;17.180;2023-06-05T09:52:13;100660.40;;;27.47;46.45
47913;BME280;33676;51.006;17.180;2023-06-05T09:54:44;100658.64;;;27.64;46.38
47913;BME280;33676;51.006;17.180;2023-06-05T09:57:16;100654.55;;;27.83;46.19
47913;BME280;33676;51.006;17.180;2023-06-05T09:59:53;100654.59;;;27.96;45.47
47913;BME280;33676;51.006;17.180;2023-06-05T10:02:36;100651.91;;;27.98;44.89
47913;BME280;33676;51.006;17.180;2023-06-05T10:05:08;100652.81;;;28.09;45.20
47913;BME280;33676;51.006;17.180;2023-06-05T10:07:39;100651.16;;;28.31;45.32
47913;BME280;33676;51.006;17.180;2023-06-05T10:10:09;100648.57;;;28.50;45.09
47913;BME280;33676;51.006;17.180;2023-06-05T10:12:40;100645.74;;;28.63;44.36
47913;BME280;33676;51.006;17.180;2023-06-05T10:15:11;100648.59;;;28.68;44.07
47913;BME280;33676;51.006;17.180;2023-06-05T10:17:41;100643.76;;;28.75;44.36
47913;BME280;33676;51.006;17.180;2023-06-05T10:20:10;100640.35;;;28.94;44.44
47913;BME280;33676;51.006;17.180;2023-06-05T10:22:41;100635.48;;;29.18;44.56
47913;BME280;33676;51.006;17.180;2023-06-05T10:25:10;100631.15;;;29.41;44.62
47913;BME280;33676;51.006;17.180;2023-06-05T10:31:24;100635.02;;;30.06;45.03
47913;BME280;33676;51.006;17.180;2023-06-05T10:39:29;100623.98;;;31.09;44.31
47913;BME280;33676;51.006;17.180;2023-06-05T10:42:00;100622.92;;;31.27;43.78
47913;BME280;33676;51.006;17.180;2023-06-05T10:44:40;100630.44;;;31.30;42.62
47913;BME280;33676;51.006;17.180;2023-06-05T10:52:46;100620.52;;;31.14;42.34
47913;BME280;33676;51.006;17.180;2023-06-05T10:55:15;100615.27;;;31.18;42.03
47913;BME280;33676;51.006;17.180;2023-06-05T10:58:10;100615.11;;;31.26;42.14
47913;BME280;33676;51.006;17.180;2023-06-05T11:01:19;100609.11;;;31.46;42.10
47913;BME280;33676;51.006;17.180;2023-06-05T11:03:58;100603.95;;;31.75;42.40
47913;BME280;33676;51.006;17.180;2023-06-05T11:06:27;100601.52;;;32.05;42.11
47913;BME280;33676;51.006;17.180;2023-06-05T11:09:11;100602.34;;;32.28;42.06
47913;BME280;33676;51.006;17.180;2023-06-05T11:11:58;100605.02;;;32.61;42.30
47913;BME280;33676;51.006;17.180;2023-06-05T11:14:47;100600.27;;;33.12;42.61
47913;BME280;33676;51.006;17.180;2023-06-05T11:19:54;100595.46;;;34.00;41.72
47913;BME280;33676;51.006;17.180;2023-06-05T11:22:23;100592.13;;;34.30;41.68
47913;BME280;33676;51.006;17.180;2023-06-05T11:27:47;100594.92;;;34.44;39.30
47913;BME280;33676;51.006;17.180;2023-06-05T11:30:18;100594.48;;;33.55;38.66
47913;BME280;33676;51.006;17.180;2023-06-05T11:33:16;100589.70;;;33.23;38.86
47913;BME280;33676;51.006;17.180;2023-06-05T11:35:47;100585.05;;;33.36;39.42
47913;BME280;33676;51.006;17.180;2023-06-05T11:38:22;100576.33;;;33.69;39.31
47913;BME280;33676;51.006;17.180;2023-06-05T11:40:54;100572.67;;;34.06;39.49
47913;BME280;33676;51.006;17.180;2023-06-05T11:43:24;100576.23;;;34.55;39.86
47913;BME280;33676;51.006;17.180;2023-06-05T11:45:55;100578.37;;;35.08;40.07
47913;BME280;33676;51.006;17.180;2023-06-05T11:48:24;100572.33;;;35.59;39.88
47913;BME280;33676;51.006;17.180;2023-06-05T11:53:31;100571.11;;;36.42;39.41
47913;BME280;33676;51.006;17.180;2023-06-05T11:56:00;100572.26;;;36.82;39.08
47913;BME280;33676;51.006;17.180;2023-06-05T11:58:35;100573.90;;;37.18;38.98
47913;BME280;33676;51.006;17.180;2023-06-05T12:01:15;100571.69;;;37.55;38.92
47913;BME280;33676;51.006;17.180;2023-06-05T12:04:07;100567.46;;;37.75;37.71
47913;BME280;33676;51.006;17.180;2023-06-05T12:06:46;100564.77;;;36.59;35.83
47913;BME280;33676;51.006;17.180;2023-06-05T12:09:16;100559.29;;;35.49;35.74
47913;BME280;33676;51.006;17.180;2023-06-05T12:11:45;100558.42;;;34.74;35.97
47913;BME280;33676;51.006;17.180;2023-06-05T12:14:30;100554.93;;;34.54;36.28
47913;BME280;33676;51.006;17.180;2023-06-05T12:16:59;100552.76;;;34.67;36.86
47913;BME280;33676;51.006;17.180;2023-06-05T12:19:29;100557.72;;;34.96;37.08
47913;BME280;33676;51.006;17.180;2023-06-05T12:22:06;100556.73;;;35.04;36.60
47913;BME280;33676;51.006;17.180;2023-06-05T12:24:35;100553.16;;;35.25;37.04
47913;BME280;33676;51.006;17.180;2023-06-05T12:27:04;100552.44;;;35.81;37.49
47913;BME280;33676;51.006;17.180;2023-06-05T12:29:37;100550.60;;;36.44;37.58
47913;BME280;33676;51.006;17.180;2023-06-05T12:32:25;100548.33;;;37.08;37.52
47913;BME280;33676;51.006;17.180;2023-06-05T12:34:54;100539.23;;;37.70;37.45
47913;BME280;33676;51.006;17.180;2023-06-05T12:37:33;100536.09;;;38.20;36.98
47913;BME280;33676;51.006;17.180;2023-06-05T12:40:11;100532.63;;;38.56;36.71
47913;BME280;33676;51.006;17.180;2023-06-05T12:42:41;100533.10;;;38.93;36.65
47913;BME280;33676;51.006;17.180;2023-06-05T12:45:21;100530.36;;;39.40;37.01
47913;BME280;33676;51.006;17.180;2023-06-05T12:47:50;100528.80;;;39.80;36.85
47913;BME280;33676;51.006;17.180;2023-06-05T12:50:22;100529.54;;;40.15;36.69
47913;BME280;33676;51.006;17.180;2023-06-05T12:52:50;100528.05;;;40.35;36.26
47913;BME280;33676;51.006;17.180;2023-06-05T12:55:19;100521.57;;;40.63;36.31
47913;BME280;33676;51.006;17.180;2023-06-05T12:57:47;100521.02;;;40.92;36.23
47913;BME280;33676;51.006;17.180;2023-06-05T13:00:16;100517.09;;;40.37;34.54
47913;BME280;33676;51.006;17.180;2023-06-05T13:02:47;100514.67;;;39.24;33.97
47913;BME280;33676;51.006;17.180;2023-06-05T13:05:16;100509.08;;;38.62;34.06
47913;BME280;33676;51.006;17.180;2023-06-05T13:07:45;100509.96;;;38.20;34.15
47913;BME280;33676;51.006;17.180;2023-06-05T13:10:14;100507.09;;;38.01;34.52
47913;BME280;33676;51.006;17.180;2023-06-05T13:12:43;100500.01;;;38.32;34.93
47913;BME280;33676;51.006;17.180;2023-06-05T13:15:12;100497.30;;;38.67;34.92
47913;BME280;33676;51.006;17.180;2023-06-05T13:17:41;100500.20;;;39.01;35.14
47913;BME280;33676;51.006;17.180;2023-06-05T13:20:11;100496.73;;;39.36;34.98
47913;BME280;33676;51.006;17.180;2023-06-05T13:22:41;100493.42;;;39.68;35.01
47913;BME280;33676;51.006;17.180;2023-06-05T13:25:10;100493.27;;;39.97;35.21
47913;BME280;33676;51.006;17.180;2023-06-05T13:27:39;100488.95;;;40.28;35.01
47913;BME280;33676;51.006;17.180;2023-06-05T13:30:08;100491.17;;;40.60;35.20
47913;BME280;33676;51.006;17.180;2023-06-05T13:32:36;100488.30;;;40.88;35.06
47913;BME280;33676;51.006;17.180;2023-06-05T13:35:11;100487.87;;;40.33;33.85